Time;durP1;ratioP1;P1;durP2;ratioP2;P2;SDS_P1;SDS_P2;PMS_P1;PMS_P2;Temp;Humidity;BMP_temperature;BMP_pressure;BME280_temperature;BME280_humidity;BME280_pressure;Samples;Min_cycle;Max_cycle;Signal;HPM_P1;HPM_P2
2021/12/18 00:02:06;;;;;;;1.08;0.70;;;4.10;99.90;;;;;;5053395;28;20029;-65
2021/12/18 00:04:32;;;;;;;3.20;0.73;;;4.10;99.90;;;;;;5052928;28;20021;-65
2021/12/18 00:06:58;;;;;;;1.55;0.70;;;4.10;99.90;;;;;;5053225;28;20036;-65
2021/12/18 00:09:30;;;;;;;1.08;0.60;;;4.10;99.90;;;;;;5053332;28;20025;-65
2021/12/18 00:11:57;;;;;;;1.52;0.63;;;4.20;99.90;;;;;;5053259;28;20028;-65
2021/12/18 00:14:23;;;;;;;1.73;0.70;;;4.20;99.90;;;;;;5052791;28;20028;-65
2021/12/18 00:16:49;;;;;;;6.07;1.02;;;4.20;99.90;;;;;;5052725;28;20032;-65
2021/12/18 00:19:15;;;;;;;0.95;0.80;;;4.20;99.90;;;;;;5052980;28;20025;-65
2021/12/18 00:21:41;;;;;;;1.67;0.60;;;4.20;99.90;;;;;;5052914;28;20094;-65
2021/12/18 00:24:08;;;;;;;1.30;0.75;;;4.20;99.90;;;;;;5052729;28;20476;-65
2021/12/18 00:26:35;;;;;;;0.70;0.70;;;4.30;99.90;;;;;;5052512;28;20041;-65
2021/12/18 00:29:01;;;;;;;2.72;0.63;;;4.30;99.90;;;;;;5052648;28;20027;-65
2021/12/18 00:31:26;;;;;;;0.55;0.55;;;4.30;99.90;;;;;;5052597;28;20103;-65
2021/12/18 00:33:52;;;;;;;1.27;0.60;;;4.30;99.90;;;;;;5052530;28;20025;-65
2021/12/18 00:36:18;;;;;;;1.42;0.70;;;4.30;99.90;;;;;;5052894;28;20032;-65
2021/12/18 00:38:44;;;;;;;2.72;0.80;;;4.30;99.90;;;;;;5052284;28;20021;-66
2021/12/18 00:41:27;;;;;;;1.05;0.65;;;4.30;99.90;;;;;;5052558;28;20029;-66
2021/12/18 00:44:02;;;;;;;3.80;1.02;;;4.30;99.90;;;;;;5052326;28;20029;-66
2021/12/18 00:46:40;;;;;;;0.85;0.60;;;4.30;99.90;;;;;;5051004;28;20068;-65
2021/12/18 00:49:07;;;;;;;2.22;0.70;;;4.30;99.90;;;;;;5052301;28;20066;-66
2021/12/18 00:51:34;;;;;;;1.38;0.70;;;4.30;99.90;;;;;;5052197;28;20108;-65
2021/12/18 00:54:00;;;;;;;0.68;0.55;;;4.30;99.90;;;;;;5052533;28;20028;-66
2021/12/18 00:56:27;;;;;;;1.05;0.70;;;4.30;99.90;;;;;;5052128;28;20048;-65
2021/12/18 00:58:53;;;;;;;2.15;0.63;;;4.30;99.90;;;;;;5052426;28;20117;-66
2021/12/18 01:01:21;;;;;;;1.17;0.73;;;4.30;99.90;;;;;;5052351;28;20029;-66
2021/12/18 01:03:50;;;;;;;0.93;0.65;;;4.30;99.90;;;;;;5052257;28;20025;-65
2021/12/18 01:06:17;;;;;;;2.70;0.70;;;4.30;99.90;;;;;;5052023;28;20180;-65
2021/12/18 01:08:44;;;;;;;1.90;0.73;;;4.30;99.90;;;;;;5051953;28;20020;-65
2021/12/18 01:13:58;;;;;;;0.63;0.63;;;4.30;99.90;;;;;;5052139;28;20115;-65
2021/12/18 01:16:34;;;;;;;0.77;0.68;;;4.30;99.90;;;;;;5051991;28;20111;-65
2021/12/18 01:24:28;;;;;;;1.73;0.60;;;4.30;99.90;;;;;;5052052;28;20048;-65
2021/12/18 01:26:53;;;;;;;0.95;0.70;;;4.30;99.90;;;;;;5051690;28;20469;-65
2021/12/18 01:29:19;;;;;;;0.73;0.70;;;4.30;99.90;;;;;;5051659;28;20024;-65
2021/12/18 01:31:45;;;;;;;1.95;0.60;;;4.30;99.90;;;;;;5051974;28;20517;-65
2021/12/18 01:34:10;;;;;;;0.75;0.60;;;4.30;99.90;;;;;;5051605;28;20036;-65
2021/12/18 01:36:36;;;;;;;2.78;0.70;;;4.30;99.90;;;;;;5051625;28;20021;-65
2021/12/18 01:39:04;;;;;;;2.47;0.50;;;4.30;99.90;;;;;;5051613;28;20040;-65
2021/12/18 01:41:38;;;;;;;3.50;0.63;;;4.30;99.90;;;;;;5051606;28;20401;-65
2021/12/18 01:54:10;;;;;;;1.02;0.65;;;4.30;99.90;;;;;;5051481;28;20021;-64
2021/12/18 01:56:35;;;;;;;1.80;0.60;;;4.40;99.90;;;;;;5051261;28;20053;-65
2021/12/18 01:59:01;;;;;;;1.73;0.80;;;4.40;99.90;;;;;;5051748;28;20033;-65
2021/12/18 02:01:28;;;;;;;0.55;0.55;;;4.40;99.90;;;;;;5050098;28;20029;-65
2021/12/18 02:03:54;;;;;;;1.65;0.70;;;4.40;99.90;;;;;;5055546;28;20029;-65
2021/12/18 02:06:20;;;;;;;1.88;0.60;;;4.40;99.90;;;;;;5055575;28;20029;-65
2021/12/18 02:08:46;;;;;;;0.68;0.57;;;4.40;99.90;;;;;;5055179;28;20025;-65
2021/12/18 02:11:33;;;;;;;2.05;0.65;;;4.40;99.90;;;;;;5055238;28;20120;-64
2021/12/18 02:14:21;;;;;;;0.52;0.52;;;4.40;99.90;;;;;;5055326;28;20028;-65
2021/12/18 02:19:46;;;;;;;0.60;0.60;;;4.40;99.90;;;;;;5055402;28;20043;-65
2021/12/18 02:22:13;;;;;;;0.85;0.60;;;4.40;99.90;;;;;;5055260;28;20021;-65
2021/12/18 02:56:10;;;;;;;0.55;0.50;;;4.40;99.90;;;;;;5054069;28;20124;-65
2021/12/18 02:58:40;;;;;;;2.38;0.57;;;4.40;99.90;;;;;;5054373;28;20028;-65
2021/12/18 03:01:09;;;;;;;0.68;0.68;;;4.40;99.90;;;;;;5054106;28;20040;-65
2021/12/18 03:03:38;;;;;;;2.17;0.52;;;4.40;99.90;;;;;;5054315;28;20049;-65
2021/12/18 03:24:56;;;;;;;0.65;0.50;;;4.50;99.90;;;;;;5054252;28;20067;-65
2021/12/18 03:27:22;;;;;;;0.50;0.50;;;4.50;99.90;;;;;;5053978;28;20037;-65
2021/12/18 03:29:48;;;;;;;0.50;0.50;;;4.60;99.90;;;;;;5053612;28;20021;-65
2021/12/18 03:32:15;;;;;;;3.10;0.70;;;4.60;99.90;;;;;;5053909;28;20420;-65
2021/12/18 03:34:41;;;;;;;0.50;0.50;;;4.60;99.90;;;;;;5053972;28;20358;-65
2021/12/18 03:37:06;;;;;;;2.22;0.70;;;4.60;99.90;;;;;;5053620;28;20465;-65
2021/12/18 03:39:32;;;;;;;0.63;0.63;;;4.60;99.90;;;;;;5053912;28;20138;-65
2021/12/18 03:41:58;;;;;;;0.75;0.63;;;4.70;99.90;;;;;;5053781;28;20381;-65
2021/12/18 03:44:24;;;;;;;0.95;0.60;;;4.70;99.90;;;;;;5053932;28;20021;-65
2021/12/18 03:46:50;;;;;;;1.02;0.60;;;4.70;99.90;;;;;;5053762;28;20033;-65
2021/12/18 03:49:16;;;;;;;2.58;0.63;;;4.70;99.90;;;;;;5053546;28;20494;-65
2021/12/18 03:51:42;;;;;;;1.33;0.60;;;4.70;99.90;;;;;;5053533;28;20033;-65
2021/12/18 03:54:08;;;;;;;1.10;0.70;;;4.70;99.90;;;;;;5053273;28;20025;-65
2021/12/18 03:56:33;;;;;;;2.53;0.73;;;4.70;99.90;;;;;;5053079;28;20098;-65
2021/12/18 03:58:59;;;;;;;1.38;0.70;;;4.70;99.90;;;;;;5053123;28;20043;-65
2021/12/18 04:01:25;;;;;;;2.38;0.60;;;4.70;99.90;;;;;;5053180;28;20028;-65
2021/12/18 04:03:52;;;;;;;1.25;0.70;;;4.70;99.90;;;;;;5053150;28;20032;-65
2021/12/18 04:06:18;;;;;;;1.60;0.77;;;4.70;99.90;;;;;;5053274;28;20059;-65
2021/12/18 04:08:44;;;;;;;2.05;0.65;;;4.70;99.90;;;;;;5053410;28;20029;-65
2021/12/18 04:11:10;;;;;;;1.38;0.68;;;4.70;99.90;;;;;;5052790;28;20060;-65
2021/12/18 04:13:36;;;;;;;2.45;0.70;;;4.70;99.90;;;;;;5053033;28;20053;-65
2021/12/18 04:16:02;;;;;;;1.77;0.77;;;4.70;99.90;;;;;;5052694;28;20025;-65
2021/12/18 04:18:28;;;;;;;1.23;0.77;;;4.70;99.90;;;;;;5053212;28;20025;-65
2021/12/18 04:20:54;;;;;;;3.08;0.80;;;4.70;99.90;;;;;;5053004;28;20082;-65
2021/12/18 04:23:20;;;;;;;2.15;0.80;;;4.70;99.90;;;;;;5053049;28;20029;-65
2021/12/18 04:25:46;;;;;;;3.00;0.70;;;4.70;99.90;;;;;;5050898;28;20512;-65
2021/12/18 04:28:12;;;;;;;1.85;0.80;;;4.70;99.90;;;;;;5052378;28;20060;-65
2021/12/18 04:30:37;;;;;;;2.25;0.80;;;4.70;99.90;;;;;;5052610;28;20032;-65
2021/12/18 04:33:03;;;;;;;3.70;0.85;;;4.70;99.90;;;;;;5052520;28;20024;-65
2021/12/18 04:35:29;;;;;;;6.22;1.00;;;4.80;99.90;;;;;;5052433;28;20017;-65
2021/12/18 04:37:55;;;;;;;1.95;0.80;;;4.80;99.90;;;;;;5052669;28;20025;-65
2021/12/18 04:40:26;;;;;;;3.20;0.85;;;4.80;99.90;;;;;;5052709;28;20032;-65
2021/12/18 04:42:53;;;;;;;3.08;0.98;;;4.80;99.90;;;;;;5052769;28;20131;-65
2021/12/18 04:45:19;;;;;;;2.33;0.68;;;4.80;99.90;;;;;;5052587;28;20037;-64
2021/12/18 04:47:45;;;;;;;3.05;0.80;;;4.80;99.90;;;;;;5052372;28;20025;-65
2021/12/18 04:50:10;;;;;;;2.33;0.93;;;4.80;99.90;;;;;;5052207;28;20042;-65
2021/12/18 04:52:36;;;;;;;5.30;1.05;;;4.80;99.90;;;;;;5052483;28;20087;-65
2021/12/18 04:55:04;;;;;;;6.20;1.10;;;4.80;99.90;;;;;;5052032;28;20029;-65
2021/12/18 04:57:29;;;;;;;4.93;1.10;;;4.90;99.90;;;;;;5052065;28;20045;-65
2021/12/18 04:59:55;;;;;;;5.22;1.00;;;4.80;99.90;;;;;;5052047;28;20021;-65
2021/12/18 05:02:25;;;;;;;3.53;0.75;;;4.80;99.90;;;;;;5052515;28;20056;-64
2021/12/18 05:04:52;;;;;;;2.67;1.00;;;4.80;99.90;;;;;;5052291;28;20033;-65
2021/12/18 05:07:18;;;;;;;2.95;1.17;;;4.90;99.90;;;;;;5051997;28;20097;-65
2021/12/18 05:09:44;;;;;;;4.63;1.10;;;4.90;99.90;;;;;;5052371;28;20029;-64
2021/12/18 05:12:10;;;;;;;3.67;1.00;;;4.90;99.90;;;;;;5051970;28;20393;-65
2021/12/18 05:14:36;;;;;;;6.80;1.00;;;4.90;99.90;;;;;;5052303;28;20029;-64
2021/12/18 05:17:02;;;;;;;5.22;1.30;;;4.80;99.90;;;;;;5051941;28;20036;-64
2021/12/18 05:19:28;;;;;;;6.85;1.27;;;4.80;99.90;;;;;;5052240;28;20405;-64
2021/12/18 05:21:54;;;;;;;6.63;1.20;;;4.80;99.90;;;;;;5051818;28;20103;-64
2021/12/18 05:24:20;;;;;;;3.92;1.08;;;4.80;99.90;;;;;;5051730;28;20029;-64
2021/12/18 05:26:45;;;;;;;2.65;0.98;;;4.80;99.90;;;;;;5051659;28;20033;-64
2021/12/18 05:29:11;;;;;;;7.18;1.73;;;4.80;99.90;;;;;;5051580;28;20538;-65
2021/12/18 05:31:37;;;;;;;3.58;0.90;;;4.90;99.90;;;;;;5051952;28;20056;-64
2021/12/18 05:34:04;;;;;;;1.20;0.93;;;4.80;99.90;;;;;;5050331;28;20027;-64
2021/12/18 05:38:59;;;;;;;3.00;0.90;;;4.80;99.90;;;;;;5056283;28;20060;-65
2021/12/18 05:41:25;;;;;;;3.30;1.00;;;5.50;99.90;;;;;;5055054;28;20039;-64
2021/12/18 05:43:51;;;;;;;14.55;3.38;;;6.10;99.90;;;;;;5054358;28;20025;-63
2021/12/18 05:46:16;;;;;;;3.03;0.93;;;5.80;99.90;;;;;;5054962;28;20098;-64
2021/12/18 05:48:42;;;;;;;3.33;0.90;;;5.60;99.90;;;;;;5055715;28;20503;-65
2021/12/18 05:51:08;;;;;;;1.95;0.80;;;5.40;99.90;;;;;;5054564;28;20025;-64
2021/12/18 05:53:33;;;;;;;2.72;0.80;;;5.30;99.90;;;;;;5054879;28;20017;-64
2021/12/18 05:55:59;;;;;;;2.97;0.88;;;5.20;99.90;;;;;;5054761;28;20051;-65
2021/12/18 05:58:25;;;;;;;3.95;0.85;;;5.20;99.90;;;;;;5055326;28;20454;-65
2021/12/18 06:00:51;;;;;;;5.80;0.93;;;5.10;99.90;;;;;;5054982;28;20054;-63
2021/12/18 06:03:16;;;;;;;1.95;0.90;;;5.10;99.90;;;;;;5054347;28;20108;-63
2021/12/18 06:05:42;;;;;;;4.70;0.95;;;5.10;99.90;;;;;;5052773;28;20029;-63
2021/12/18 06:08:11;;;;;;;1.90;0.75;;;5.00;99.90;;;;;;5053428;28;20377;-63
2021/12/18 06:10:38;;;;;;;6.28;1.10;;;5.10;99.90;;;;;;5053667;28;20116;-63
2021/12/18 06:13:03;;;;;;;3.85;0.90;;;5.10;99.90;;;;;;5052928;28;20076;-63
2021/12/18 06:15:31;;;;;;;3.35;1.00;;;5.10;99.90;;;;;;5054028;28;20570;-63
2021/12/18 06:17:58;;;;;;;2.55;1.00;;;5.00;99.90;;;;;;5054450;28;20484;-63
2021/12/18 06:20:25;;;;;;;3.85;1.05;;;5.00;99.90;;;;;;5054398;28;20021;-65
2021/12/18 06:22:51;;;;;;;0.77;0.63;;;5.00;99.90;;;;;;5052899;28;20032;-64
2021/12/18 06:25:17;;;;;;;3.17;1.55;;;5.00;99.90;;;;;;5054278;28;20032;-64
2021/12/18 06:27:42;;;;;;;3.47;0.95;;;5.00;99.90;;;;;;5055341;28;20429;-64
2021/12/18 06:30:12;;;;;;;6.85;1.27;;;5.00;99.90;;;;;;5054773;28;20481;-63
2021/12/18 06:32:39;;;;;;;3.65;1.08;;;5.00;99.90;;;;;;5055613;28;20047;-63
2021/12/18 06:35:07;;;;;;;5.78;0.90;;;5.00;99.90;;;;;;5055133;28;20124;-63
2021/12/18 06:37:33;;;;;;;3.40;0.90;;;5.00;99.90;;;;;;5054921;28;20029;-63
2021/12/18 06:39:58;;;;;;;3.05;0.80;;;5.00;99.90;;;;;;5054829;28;20412;-63
2021/12/18 06:42:24;;;;;;;4.43;0.88;;;5.00;99.90;;;;;;5054635;28;20021;-63
2021/12/18 06:44:50;;;;;;;3.00;1.05;;;5.00;99.90;;;;;;5054728;28;20021;-63
2021/12/18 06:47:16;;;;;;;3.10;0.93;;;5.00;99.90;;;;;;5053012;28;20116;-63
2021/12/18 06:49:41;;;;;;;3.30;0.90;;;5.00;99.90;;;;;;5054611;28;20214;-63
2021/12/18 06:52:07;;;;;;;3.92;1.10;;;5.00;99.90;;;;;;5054595;28;20025;-63
2021/12/18 06:54:33;;;;;;;2.08;0.70;;;5.00;99.90;;;;;;5054783;28;20380;-65
2021/12/18 06:56:59;;;;;;;1.98;0.80;;;5.00;99.90;;;;;;5054359;28;20131;-65
2021/12/18 06:59:25;;;;;;;4.03;1.00;;;5.00;99.90;;;;;;5054243;28;20108;-64
2021/12/18 07:01:52;;;;;;;2.33;0.70;;;5.00;99.90;;;;;;5054369;28;20033;-64
2021/12/18 07:04:19;;;;;;;3.72;1.00;;;5.00;99.90;;;;;;5054219;28;20021;-64
2021/12/18 07:06:45;;;;;;;5.13;1.08;;;5.00;99.90;;;;;;5054482;28;20124;-64
2021/12/18 07:09:11;;;;;;;1.83;0.98;;;5.00;99.90;;;;;;5053919;28;20616;-64
2021/12/18 07:11:37;;;;;;;6.15;1.10;;;5.00;99.90;;;;;;5054082;28;20116;-64
2021/12/18 07:14:03;;;;;;;4.00;1.42;;;5.00;99.90;;;;;;5053555;28;20112;-70
2021/12/18 07:16:28;;;;;;;4.35;1.13;;;5.00;99.90;;;;;;5053171;28;20381;-69
2021/12/18 07:18:54;;;;;;;1.58;0.85;;;5.00;99.90;;;;;;5053245;28;20025;-68
2021/12/18 07:21:20;;;;;;;3.67;1.00;;;5.00;99.90;;;;;;5053070;28;20439;-68
2021/12/18 07:23:45;;;;;;;4.22;1.30;;;5.00;99.90;;;;;;5053596;28;20047;-69
2021/12/18 07:26:12;;;;;;;4.20;0.88;;;5.00;99.90;;;;;;5053545;28;20120;-60
2021/12/18 07:28:38;;;;;;;3.55;0.80;;;5.10;99.90;;;;;;5053710;28;20054;-67
2021/12/18 07:31:04;;;;;;;3.60;1.00;;;5.20;99.90;;;;;;5054007;28;20032;-67
2021/12/18 07:33:30;;;;;;;6.03;1.10;;;5.10;99.90;;;;;;5052831;28;20025;-66
2021/12/18 07:35:56;;;;;;;5.00;1.15;;;5.10;99.90;;;;;;5053208;28;20458;-64
2021/12/18 07:38:22;;;;;;;3.60;1.10;;;5.00;99.90;;;;;;5053952;28;20480;-62
2021/12/18 07:40:47;;;;;;;2.67;1.10;;;5.00;99.90;;;;;;5053273;28;20481;-63
2021/12/18 07:43:13;;;;;;;3.42;0.90;;;5.00;99.90;;;;;;5053788;28;20029;-63
2021/12/18 07:45:39;;;;;;;4.25;1.08;;;5.00;99.90;;;;;;5053336;28;20447;-61
2021/12/18 07:48:05;;;;;;;3.67;1.17;;;5.00;99.90;;;;;;5053659;28;20024;-62
2021/12/18 07:50:32;;;;;;;4.88;1.20;;;5.00;99.90;;;;;;5053739;28;20025;-61
2021/12/18 07:52:58;;;;;;;3.28;1.08;;;5.00;99.90;;;;;;5053535;28;20033;-62
2021/12/18 07:55:24;;;;;;;3.72;1.20;;;5.00;99.90;;;;;;5053015;28;20033;-63
2021/12/18 07:57:54;;;;;;;5.03;1.00;;;5.10;99.90;;;;;;5053452;28;20032;-63
2021/12/18 08:00:20;;;;;;;5.50;1.17;;;5.10;99.90;;;;;;5052729;28;20033;-63
2021/12/18 08:02:47;;;;;;;7.53;1.27;;;5.10;99.90;;;;;;5053542;28;20033;-64
2021/12/18 08:05:14;;;;;;;2.08;0.90;;;5.10;99.90;;;;;;5053300;28;20033;-64
2021/12/18 08:07:40;;;;;;;5.32;1.10;;;5.00;99.90;;;;;;5053146;28;20033;-64
2021/12/18 08:10:06;;;;;;;7.35;1.25;;;5.00;99.90;;;;;;5053178;28;20385;-64
2021/12/18 08:12:32;;;;;;;4.47;1.10;;;5.00;99.90;;;;;;5053220;28;20163;-64
2021/12/18 08:14:58;;;;;;;5.15;0.98;;;5.00;99.90;;;;;;5053216;28;20485;-64
2021/12/18 08:17:25;;;;;;;5.82;1.40;;;5.00;99.90;;;;;;5052803;28;20029;-64
2021/12/18 08:19:51;;;;;;;6.13;1.50;;;5.00;99.90;;;;;;5053193;28;20052;-64
2021/12/18 08:22:16;;;;;;;6.25;1.65;;;5.00;99.90;;;;;;5052920;28;20067;-64
2021/12/18 08:24:42;;;;;;;10.32;1.20;;;5.00;99.90;;;;;;5052834;28;20071;-62
2021/12/18 08:27:08;;;;;;;5.13;1.13;;;5.00;99.90;;;;;;5052460;28;20029;-62
2021/12/18 08:29:34;;;;;;;4.35;1.10;;;5.00;99.90;;;;;;5052434;28;20021;-62
2021/12/18 08:32:00;;;;;;;5.95;1.27;;;5.00;99.90;;;;;;5051377;28;20167;-63
2021/12/18 08:34:25;;;;;;;4.80;1.00;;;5.00;99.90;;;;;;5051988;28;20032;-64
2021/12/18 08:36:52;;;;;;;4.50;1.27;;;4.90;99.90;;;;;;5052504;28;20027;-69
2021/12/18 08:39:17;;;;;;;4.88;1.17;;;4.90;99.90;;;;;;5052193;28;20028;-70
2021/12/18 08:41:45;;;;;;;1.65;0.70;;;5.10;99.90;;;;;;5052123;28;20032;-69
2021/12/18 08:44:11;;;;;;;5.10;1.27;;;5.30;99.90;;;;;;5035532;28;20029;-69
2021/12/18 08:46:37;;;;;;;5.85;1.10;;;5.40;99.90;;;;;;5032328;28;20567;-65
2021/12/18 08:49:05;;;;;;;3.90;1.10;;;5.50;99.90;;;;;;5032714;28;20041;-65
2021/12/18 08:51:32;;;;;;;5.13;1.42;;;5.50;99.90;;;;;;5032221;28;20040;-71
2021/12/18 08:53:58;;;;;;;4.40;1.30;;;5.50;99.90;;;;;;5032411;28;20018;-71
2021/12/18 08:56:23;;;;;;;3.17;1.23;;;5.50;99.90;;;;;;5031887;28;20509;-70
2021/12/18 08:58:53;;;;;;;4.60;1.17;;;5.50;99.90;;;;;;5032375;28;20052;-70
2021/12/18 09:01:21;;;;;;;4.63;1.05;;;5.50;99.90;;;;;;5032024;28;20489;-70
2021/12/18 09:03:48;;;;;;;4.22;1.25;;;5.70;99.90;;;;;;5032270;28;20026;-65
2021/12/18 09:06:13;;;;;;;5.97;1.00;;;5.70;99.90;;;;;;5030580;28;20029;-66
2021/12/18 09:08:39;;;;;;;4.95;1.20;;;7.20;99.90;;;;;;5030917;28;20048;-66
2021/12/18 09:11:05;;;;;;;4.00;1.00;;;9.00;99.90;;;;;;5031935;28;20079;-64
2021/12/18 09:13:31;;;;;;;7.10;1.20;;;8.40;99.90;;;;;;5043746;28;20114;-63
2021/12/18 09:15:56;;;;;;;9.30;2.13;;;7.50;99.90;;;;;;5050807;28;20029;-64
2021/12/18 09:18:22;;;;;;;3.90;1.10;;;6.90;99.90;;;;;;5051109;28;20492;-64
2021/12/18 09:20:48;;;;;;;7.18;1.50;;;6.30;99.90;;;;;;5051984;28;20059;-64
2021/12/18 09:23:17;;;;;;;5.97;1.23;;;6.00;99.90;;;;;;5051311;28;20032;-64
2021/12/18 09:25:43;;;;;;;11.02;1.75;;;5.80;99.90;;;;;;5051791;28;20405;-64
2021/12/18 09:28:09;;;;;;;6.40;1.50;;;5.70;99.90;;;;;;5051790;28;20014;-65
2021/12/18 09:30:35;;;;;;;7.10;1.33;;;5.60;99.90;;;;;;5052197;28;20032;-64
2021/12/18 09:33:01;;;;;;;5.85;1.45;;;5.50;99.90;;;;;;5051768;28;20619;-64
2021/12/18 09:35:27;;;;;;;7.97;1.85;;;5.40;99.90;;;;;;5051553;28;20029;-65
2021/12/18 09:37:53;;;;;;;8.63;1.40;;;5.30;99.90;;;;;;5051806;28;20055;-64
2021/12/18 09:40:19;;;;;;;7.20;1.50;;;5.30;99.90;;;;;;5050877;28;20058;-63
2021/12/18 09:42:46;;;;;;;5.07;1.27;;;5.20;99.90;;;;;;5051550;28;20039;-64
2021/12/18 09:45:15;;;;;;;8.85;1.45;;;5.20;99.90;;;;;;5051490;28;20036;-64
2021/12/18 09:47:42;;;;;;;13.80;2.83;;;5.10;99.90;;;;;;5051473;28;20033;-64
2021/12/18 09:50:09;;;;;;;5.65;1.48;;;5.10;99.90;;;;;;5051868;28;20028;-64
2021/12/18 09:52:35;;;;;;;13.18;1.67;;;5.10;99.90;;;;;;5051312;28;20558;-64
2021/12/18 09:55:03;;;;;;;6.68;1.95;;;5.10;99.90;;;;;;5051688;28;20104;-64
2021/12/18 09:57:28;;;;;;;7.50;1.40;;;5.10;99.90;;;;;;5051229;28;20493;-64
2021/12/18 09:59:54;;;;;;;11.23;1.70;;;5.00;99.90;;;;;;5051531;28;20074;-64
2021/12/18 10:02:20;;;;;;;7.75;1.40;;;5.00;99.90;;;;;;5050998;28;20071;-64
2021/12/18 10:04:46;;;;;;;6.25;1.50;;;5.00;99.90;;;;;;5051792;28;20021;-64
2021/12/18 10:07:20;;;;;;;7.38;1.38;;;5.00;99.90;;;;;;5051290;28;20519;-64
2021/12/18 10:09:48;;;;;;;6.82;1.70;;;5.00;99.90;;;;;;5051768;28;20109;-64
2021/12/18 10:12:20;;;;;;;11.00;2.85;;;5.00;99.90;;;;;;5051448;28;20021;-64
2021/12/18 10:14:52;;;;;;;8.20;1.52;;;5.00;99.90;;;;;;5051368;28;20504;-64
2021/12/18 10:17:25;;;;;;;7.72;1.45;;;4.90;99.90;;;;;;5051152;28;20037;-64
2021/12/18 10:19:53;;;;;;;7.78;1.27;;;4.90;99.90;;;;;;5051601;28;20385;-64
2021/12/18 10:22:19;;;;;;;6.95;1.40;;;4.90;99.90;;;;;;5051277;28;20051;-65
2021/12/18 10:25:00;;;;;;;6.95;1.52;;;4.90;99.90;;;;;;5055346;28;20106;-65
2021/12/18 10:27:28;;;;;;;4.63;1.25;;;4.80;99.90;;;;;;5055101;28;20033;-65
2021/12/18 10:30:08;;;;;;;8.15;1.55;;;4.80;99.90;;;;;;5054925;28;20540;-65
2021/12/18 10:32:33;;;;;;;9.55;1.92;;;4.80;99.90;;;;;;5054777;28;20021;-65
2021/12/18 10:34:59;;;;;;;4.78;1.60;;;4.80;99.90;;;;;;5055272;28;20032;-65
2021/12/18 10:37:30;;;;;;;3.83;1.20;;;4.80;99.90;;;;;;5054717;28;20483;-65
2021/12/18 10:40:09;;;;;;;6.05;1.52;;;4.80;99.90;;;;;;5055141;28;20025;-65
2021/12/18 10:42:47;;;;;;;4.95;1.27;;;4.80;99.90;;;;;;5054660;28;20059;-65
2021/12/18 10:45:17;;;;;;;8.13;1.48;;;4.80;99.90;;;;;;5054806;28;20032;-65
2021/12/18 10:48:03;;;;;;;6.07;1.27;;;4.80;99.90;;;;;;5054646;28;20561;-65
2021/12/18 10:50:43;;;;;;;5.55;1.15;;;4.80;99.90;;;;;;5054638;28;20542;-65
2021/12/18 10:53:30;;;;;;;6.10;1.58;;;4.70;99.90;;;;;;5054703;28;20036;-65
2021/12/18 10:56:01;;;;;;;5.32;1.38;;;4.70;99.90;;;;;;5054360;28;20102;-65
2021/12/18 10:58:29;;;;;;;3.38;1.30;;;4.70;99.90;;;;;;5054679;28;20037;-65
2021/12/18 11:00:59;;;;;;;5.95;1.38;;;4.70;99.90;;;;;;5054651;28;20028;-65
2021/12/18 11:03:38;;;;;;;8.50;1.52;;;4.70;99.90;;;;;;5054492;28;20029;-65
2021/12/18 11:06:13;;;;;;;8.15;1.58;;;4.70;99.90;;;;;;5054412;28;20067;-65
2021/12/18 11:08:52;;;;;;;3.10;0.98;;;4.70;99.90;;;;;;5054134;28;20474;-65
2021/12/18 11:14:01;;;;;;;12.50;1.45;;;4.70;99.90;;;;;;5054045;28;20029;-65
2021/12/18 11:16:28;;;;;;;5.40;1.10;;;4.60;99.90;;;;;;5053967;28;20024;-65
2021/12/18 11:18:57;;;;;;;5.55;1.50;;;4.60;99.90;;;;;;5054370;28;20103;-65
2021/12/18 11:21:26;;;;;;;6.22;2.30;;;4.60;99.90;;;;;;5053939;28;20488;-65
2021/12/18 11:24:01;;;;;;;4.95;1.85;;;4.60;99.90;;;;;;5053996;28;20040;-65
2021/12/18 11:26:49;;;;;;;11.15;4.38;;;4.60;99.90;;;;;;5053796;28;20029;-67
2021/12/18 11:29:25;;;;;;;7.63;1.52;;;4.60;99.90;;;;;;5053799;28;20033;-65
2021/12/18 11:31:51;;;;;;;8.77;4.40;;;4.60;99.90;;;;;;5053826;28;20044;-65
2021/12/18 11:34:17;;;;;;;6.20;1.80;;;4.60;99.90;;;;;;5051171;28;20473;-65
2021/12/18 11:36:45;;;;;;;4.85;1.70;;;4.60;99.90;;;;;;5053785;28;20082;-65
2021/12/18 11:39:13;;;;;;;4.60;1.25;;;4.60;99.90;;;;;;5054010;28;20049;-65
2021/12/18 11:41:39;;;;;;;5.07;1.33;;;4.60;99.90;;;;;;5053478;28;20017;-65
2021/12/18 11:44:38;;;;;;;3.08;1.10;;;4.60;99.90;;;;;;5053919;28;20045;-65
2021/12/18 11:47:24;;;;;;;3.55;1.20;;;4.60;99.90;;;;;;5053421;28;20064;-65
2021/12/18 11:49:51;;;;;;;4.03;0.80;;;4.60;99.90;;;;;;5053560;28;20053;-65
2021/12/18 11:52:17;;;;;;;3.33;1.40;;;4.60;99.90;;;;;;5053738;28;20025;-65
2021/12/18 11:54:50;;;;;;;1.38;0.95;;;4.60;99.90;;;;;;5053691;28;20449;-68
2021/12/18 11:57:44;;;;;;;3.40;1.30;;;4.60;99.90;;;;;;5053253;28;20052;-65
2021/12/18 12:00:21;;;;;;;3.80;1.08;;;5.10;99.90;;;;;;5053343;28;20473;-65
2021/12/18 12:02:54;;;;;;;3.33;0.82;;;5.20;99.90;;;;;;5053220;28;20029;-65
2021/12/18 12:05:33;;;;;;;1.90;0.90;;;5.20;99.90;;;;;;5053030;28;20048;-66
2021/12/18 12:08:41;;;;;;;5.68;1.67;;;5.10;99.90;;;;;;5053166;28;20039;-64
2021/12/18 12:11:16;;;;;;;1.88;0.90;;;4.90;99.90;;;;;;5053109;28;20610;-63
2021/12/18 12:14:03;;;;;;;2.50;0.80;;;4.80;99.90;;;;;;5053311;28;20075;-64
2021/12/18 12:16:44;;;;;;;2.03;0.70;;;4.70;99.90;;;;;;5052663;28;20028;-63
2021/12/18 12:19:21;;;;;;;2.15;1.02;;;4.70;99.90;;;;;;5053345;28;20056;-63
2021/12/18 12:21:52;;;;;;;0.95;0.70;;;4.70;99.90;;;;;;5053211;28;20025;-63
2021/12/18 12:24:21;;;;;;;2.70;1.00;;;4.60;99.90;;;;;;5053018;28;20025;-63
2021/12/18 12:26:48;;;;;;;5.88;1.60;;;4.60;99.90;;;;;;5052649;28;20047;-63
2021/12/18 12:29:16;;;;;;;2.42;0.90;;;4.60;99.90;;;;;;5052589;28;20029;-63
2021/12/18 12:31:55;;;;;;;2.17;1.00;;;4.60;99.90;;;;;;5052321;28;20040;-64
2021/12/18 12:34:34;;;;;;;3.15;0.80;;;4.60;99.90;;;;;;5052789;28;20025;-64
2021/12/18 12:37:22;;;;;;;1.88;0.63;;;4.60;99.90;;;;;;5052627;28;20036;-63
2021/12/18 12:39:54;;;;;;;3.45;0.90;;;4.60;99.90;;;;;;5051712;28;20035;-64
2021/12/18 12:42:20;;;;;;;2.13;0.70;;;4.60;99.90;;;;;;5052060;28;20028;-64
2021/12/18 12:45:01;;;;;;;2.45;0.73;;;4.60;99.90;;;;;;5052395;28;20025;-64
2021/12/18 12:47:28;;;;;;;;;;;4.60;99.90;;;;;;5052543;28;20112;-65
2021/12/18 12:50:00;;;;;;;1.92;0.90;;;4.60;99.90;;;;;;5052018;28;19905;-65
2021/12/18 12:52:28;;;;;;;2.13;0.80;;;4.60;99.90;;;;;;5051816;28;20021;-66
2021/12/18 12:55:03;;;;;;;1.30;0.60;;;4.60;99.90;;;;;;5052369;28;20477;-65
2021/12/18 12:57:30;;;;;;;5.35;0.77;;;4.60;99.90;;;;;;5052085;28;20058;-68
2021/12/18 12:59:58;;;;;;;3.05;0.80;;;5.40;99.90;;;;;;5052104;28;20021;-65
2021/12/18 13:02:38;;;;;;;1.48;0.65;;;6.20;99.90;;;;;;5052040;28;20040;-65
2021/12/18 13:05:12;;;;;;;0.65;0.63;;;5.80;99.90;;;;;;5052543;28;20025;-65
2021/12/18 13:07:48;;;;;;;0.90;0.70;;;5.40;99.90;;;;;;5052179;28;20071;-65
2021/12/18 13:10:22;;;;;;;0.75;0.65;;;5.20;99.90;;;;;;5050839;28;20017;-65
2021/12/18 13:12:57;;;;;;;0.68;0.60;;;5.00;99.90;;;;;;5050658;28;20374;-65
2021/12/18 13:15:24;;;;;;;1.33;0.60;;;4.90;99.90;;;;;;5052193;28;20025;-65
2021/12/18 13:18:07;;;;;;;2.25;0.75;;;4.80;99.90;;;;;;5051888;28;20025;-65
2021/12/18 13:20:44;;;;;;;1.23;0.60;;;4.80;99.90;;;;;;5051911;28;20090;-66
2021/12/18 13:23:17;;;;;;;0.63;0.63;;;4.80;99.90;;;;;;5051999;28;20115;-65
2021/12/18 13:25:53;;;;;;;2.80;0.60;;;4.80;99.90;;;;;;5051758;28;20025;-65
2021/12/18 13:28:20;;;;;;;1.58;0.60;;;4.80;99.90;;;;;;5051697;28;20109;-66
2021/12/18 13:30:48;;;;;;;0.95;0.70;;;4.70;99.90;;;;;;5050412;28;20021;-66
2021/12/18 13:33:15;;;;;;;1.13;0.57;;;6.80;99.90;;;;;;5051992;28;20108;-66
2021/12/18 13:35:41;;;;;;;1.00;0.73;;;6.90;99.90;;;;;;5051494;28;20032;-66
2021/12/18 13:38:12;;;;;;;1.85;0.60;;;6.30;99.90;;;;;;5052668;28;20021;-66
2021/12/18 13:40:44;;;;;;;0.95;0.82;;;5.80;99.90;;;;;;5051675;28;20067;-66
2021/12/18 13:43:10;;;;;;;4.05;0.77;;;5.70;99.90;;;;;;5051702;28;20392;-64
2021/12/18 13:45:55;;;;;;;0.77;0.60;;;5.40;99.90;;;;;;5051601;28;20021;-65
2021/12/18 13:48:46;;;;;;;2.15;0.50;;;5.20;99.90;;;;;;5051493;28;20033;-65
2021/12/18 13:51:14;;;;;;;0.75;0.60;;;5.10;99.90;;;;;;5045434;28;20595;-65
2021/12/18 13:53:59;;;;;;;0.98;0.60;;;5.00;99.90;;;;;;5051216;28;20067;-65
2021/12/18 13:56:31;;;;;;;0.50;0.50;;;4.90;99.90;;;;;;5049486;28;20033;-65
2021/12/18 13:58:58;;;;;;;0.63;0.60;;;4.90;99.90;;;;;;5053526;28;20029;-65
2021/12/18 14:01:26;;;;;;;0.47;0.47;;;4.80;99.90;;;;;;5055259;28;20104;-65
2021/12/18 14:03:53;;;;;;;0.60;0.60;;;4.80;99.90;;;;;;5051826;28;20033;-65
2021/12/18 14:06:26;;;;;;;1.20;0.60;;;4.80;99.90;;;;;;5053656;28;20502;-65
2021/12/18 14:09:09;;;;;;;0.82;0.70;;;4.80;99.90;;;;;;5053258;28;20044;-65
2021/12/18 14:11:42;;;;;;;0.40;0.40;;;4.70;99.90;;;;;;5036755;28;20025;-65
2021/12/18 14:14:11;;;;;;;0.50;0.50;;;4.70;99.90;;;;;;5054929;28;20025;-65
2021/12/18 14:16:38;;;;;;;0.70;0.70;;;4.70;99.90;;;;;;5054765;28;20037;-65
2021/12/18 14:19:08;;;;;;;0.60;0.60;;;4.70;99.90;;;;;;5054363;28;20526;-65
2021/12/18 14:21:38;;;;;;;;;;;4.60;99.90;;;;;;5054877;28;20481;-65
2021/12/18 14:24:05;;;;;;;0.85;0.60;;;4.60;99.90;;;;;;5054972;28;19908;-65